createdAt,value
2023-03-30T00:01:15.295Z,-4.20
2023-03-30T00:03:44.231Z,-4.20
2023-03-30T00:06:14.419Z,-4.20
2023-03-30T00:08:41.797Z,-4.20
2023-03-30T00:11:15.696Z,-4.20
2023-03-30T00:13:43.706Z,-4.20
2023-03-30T00:16:13.581Z,-4.10
2023-03-30T00:18:41.376Z,-4.20
2023-03-30T00:21:12.020Z,-4.20
2023-03-30T00:23:39.996Z,-4.20
2023-03-30T00:26:08.297Z,-4.10
2023-03-30T00:28:35.396Z,-4.20
2023-03-30T00:31:02.842Z,-4.20
2023-03-30T00:33:41.538Z,-4.20
2023-03-30T00:36:12.036Z,-4.20
2023-03-30T00:38:39.286Z,-4.20
2023-03-30T00:41:07.412Z,-4.20
2023-03-30T00:43:35.106Z,-4.30
2023-03-30T00:46:02.396Z,-4.30
2023-03-30T00:48:37.044Z,-4.20
2023-03-30T00:51:10.633Z,-4.30
2023-03-30T00:53:43.739Z,-4.40
2023-03-30T00:56:13.731Z,-4.40
2023-03-30T00:58:42.293Z,-4.40
2023-03-30T01:04:59.740Z,-4.50
2023-03-30T01:07:27.103Z,-4.50
2023-03-30T01:09:54.852Z,-4.50
2023-03-30T01:12:22.183Z,-4.50
2023-03-30T01:14:49.248Z,-4.50
2023-03-30T01:17:53.705Z,-4.60
2023-03-30T01:20:29.762Z,-4.60
2023-03-30T01:23:27.611Z,-4.50
2023-03-30T01:26:21.677Z,-4.50
2023-03-30T01:29:05.250Z,-4.50
2023-03-30T01:32:15.779Z,-4.50
2023-03-30T01:35:19.347Z,-4.60
2023-03-30T01:37:52.682Z,-4.60
2023-03-30T01:44:11.588Z,-4.80
2023-03-30T01:46:46.294Z,-4.80
2023-03-30T01:49:39.078Z,-4.80
2023-03-30T01:52:08.960Z,-4.80
2023-03-30T01:54:42.966Z,-4.70
2023-03-30T01:57:21.609Z,-4.90
2023-03-30T01:59:59.505Z,-4.90
2023-03-30T02:02:31.660Z,-4.90
2023-03-30T02:05:01.919Z,-4.90
2023-03-30T02:07:32.582Z,-4.90
2023-03-30T02:10:04.979Z,-4.80
2023-03-30T02:12:32.854Z,-4.80
2023-03-30T02:15:04.955Z,-4.80
2023-03-30T02:17:32.270Z,-4.80
2023-03-30T02:19:59.877Z,-4.70
2023-03-30T02:22:29.733Z,-4.70
2023-03-30T02:25:00.831Z,-4.80
2023-03-30T02:27:28.703Z,-4.70
2023-03-30T02:29:56.753Z,-4.60
2023-03-30T02:32:27.632Z,-4.60
2023-03-30T02:35:19.015Z,-4.70
2023-03-30T02:38:24.561Z,-4.70
2023-03-30T02:40:57.634Z,-4.80
2023-03-30T02:43:45.879Z,-4.70
2023-03-30T02:46:25.418Z,-4.70
2023-03-30T02:49:02.116Z,-4.70
2023-03-30T02:51:35.353Z,-4.70
2023-03-30T02:54:23.619Z,-4.80
2023-03-30T02:57:11.157Z,-4.70
2023-03-30T02:59:46.513Z,-4.80
2023-03-30T03:02:20.476Z,-4.80
2023-03-30T03:04:50.168Z,-4.70
2023-03-30T03:07:19.923Z,-4.70
2023-03-30T03:09:47.243Z,-4.80
2023-03-30T03:12:14.350Z,-4.80
2023-03-30T03:14:41.571Z,-4.80
2023-03-30T03:17:08.914Z,-4.70
2023-03-30T03:19:36.025Z,-4.80
2023-03-30T03:22:03.323Z,-4.80
2023-03-30T03:24:30.553Z,-4.80
2023-03-30T03:26:57.930Z,-4.70
2023-03-30T03:29:27.159Z,-4.70
2023-03-30T03:31:54.422Z,-4.80
2023-03-30T03:34:21.538Z,-4.80
2023-03-30T03:36:52.820Z,-4.90
2023-03-30T03:39:20.222Z,-4.80
2023-03-30T03:41:47.311Z,-4.80
2023-03-30T03:44:14.463Z,-4.70
2023-03-30T03:46:42.026Z,-4.70
2023-03-30T03:49:09.860Z,-4.70
2023-03-30T03:51:37.226Z,-4.70
2023-03-30T03:54:04.374Z,-4.70
2023-03-30T03:56:31.617Z,-4.70
2023-03-30T03:58:58.659Z,-4.70
2023-03-30T04:01:25.930Z,-4.60
2023-03-30T04:03:52.975Z,-4.70
2023-03-30T04:06:20.116Z,-4.60
2023-03-30T04:08:47.314Z,-4.70
2023-03-30T04:11:14.444Z,-4.60
2023-03-30T04:13:42.020Z,-4.70
2023-03-30T04:16:09.596Z,-4.60
2023-03-30T04:18:36.879Z,-4.60
2023-03-30T04:21:07.785Z,-4.60
2023-03-30T04:23:37.973Z,-4.40
2023-03-30T04:26:07.407Z,-4.40
2023-03-30T04:28:35.634Z,-4.50
2023-03-30T04:31:05.308Z,-4.40
2023-03-30T04:33:35.233Z,-4.40
2023-03-30T04:36:02.784Z,-4.40
2023-03-30T04:38:30.275Z,-4.50
2023-03-30T04:40:57.758Z,-4.50
2023-03-30T04:43:24.992Z,-4.50
2023-03-30T04:45:57.387Z,-4.40
2023-03-30T04:48:24.956Z,-4.40
2023-03-30T04:50:52.406Z,-4.30
2023-03-30T04:53:19.566Z,-4.40
2023-03-30T04:55:51.898Z,-4.40
2023-03-30T04:58:19.261Z,-4.40
2023-03-30T05:00:46.738Z,-4.40
2023-03-30T05:03:14.358Z,-4.50
2023-03-30T05:05:42.043Z,-4.40
2023-03-30T05:08:09.522Z,-4.30
2023-03-30T05:10:36.711Z,-4.20
2023-03-30T05:13:03.713Z,-4.30
2023-03-30T05:15:30.872Z,-4.20
2023-03-30T05:18:00.601Z,-4.10
2023-03-30T05:20:28.146Z,-4.00
2023-03-30T05:22:55.338Z,-4.00
2023-03-30T05:25:26.353Z,-4.10
2023-03-30T05:27:53.560Z,-4.10
2023-03-30T05:30:23.279Z,-4.00
2023-03-30T05:32:50.751Z,-3.90
2023-03-30T05:35:17.843Z,-3.90
2023-03-30T05:37:45.019Z,-3.90
2023-03-30T05:40:12.485Z,-4.00
2023-03-30T05:42:39.672Z,-3.90
2023-03-30T05:45:08.653Z,-3.90
2023-03-30T05:47:36.426Z,-3.70
2023-03-30T05:50:04.649Z,-3.70
2023-03-30T05:52:32.408Z,-3.70
2023-03-30T05:54:59.687Z,-3.70
2023-03-30T05:57:27.282Z,-3.60
2023-03-30T05:59:54.932Z,-3.50
2023-03-30T06:02:22.594Z,-3.50
2023-03-30T06:04:49.915Z,-3.50
2023-03-30T06:07:18.237Z,-3.60
2023-03-30T06:09:45.375Z,-3.40
2023-03-30T06:12:14.834Z,-3.40
2023-03-30T06:14:44.510Z,-3.30
2023-03-30T06:17:16.168Z,-3.20
2023-03-30T06:19:46.914Z,-3.00
2023-03-30T06:22:14.614Z,-3.00
2023-03-30T06:24:41.760Z,-2.90
2023-03-30T06:27:09.506Z,-3.00
2023-03-30T06:29:37.075Z,-2.80
2023-03-30T06:32:07.237Z,-2.70
2023-03-30T06:34:35.740Z,-2.70
2023-03-30T06:37:03.159Z,-2.60
2023-03-30T06:39:30.251Z,-2.60
2023-03-30T06:41:57.430Z,-2.50
2023-03-30T06:44:27.692Z,-2.50
2023-03-30T06:46:55.083Z,-2.50
2023-03-30T06:49:26.766Z,-2.40
2023-03-30T06:51:59.166Z,-2.30
2023-03-30T06:54:29.027Z,-2.20
2023-03-30T06:56:56.862Z,-2.20
2023-03-30T06:59:25.170Z,-2.30
2023-03-30T07:01:53.475Z,-2.30
2023-03-30T07:04:21.411Z,-2.10
2023-03-30T07:06:50.122Z,-1.90
2023-03-30T07:09:17.928Z,-1.90
2023-03-30T07:11:48.300Z,-2.00
2023-03-30T07:14:15.538Z,-1.80
2023-03-30T07:16:45.206Z,-1.80
2023-03-30T07:19:12.377Z,-1.70
2023-03-30T07:21:39.397Z,-1.70
2023-03-30T07:24:08.443Z,-1.70
2023-03-30T07:26:35.611Z,-1.50
2023-03-30T07:29:02.702Z,-1.70
2023-03-30T07:31:30.539Z,-1.60
2023-03-30T07:33:57.772Z,-1.40
2023-03-30T07:36:25.715Z,-1.40
2023-03-30T07:38:55.284Z,-1.30
2023-03-30T07:41:22.787Z,-1.20
2023-03-30T07:43:49.921Z,-1.10
2023-03-30T07:46:17.141Z,-1.20
2023-03-30T07:48:44.984Z,-1.00
2023-03-30T07:51:14.094Z,-0.90
2023-03-30T07:53:42.345Z,-0.90
2023-03-30T07:56:09.706Z,-0.90
2023-03-30T07:58:37.880Z,-0.70
2023-03-30T08:01:05.785Z,-0.60
2023-03-30T08:03:33.208Z,-0.60
2023-03-30T08:06:05.438Z,-0.30
2023-03-30T08:08:39.000Z,-0.30
2023-03-30T08:11:06.961Z,-0.10
2023-03-30T08:13:37.037Z,-0.10
2023-03-30T08:16:06.247Z,-0.20
2023-03-30T08:18:33.469Z,-0.30
2023-03-30T08:21:00.664Z,-0.10
2023-03-30T08:23:29.312Z,0.00
2023-03-30T08:26:01.215Z,0.10
2023-03-30T08:28:30.102Z,0.10
2023-03-30T08:31:04.958Z,0.10
2023-03-30T08:33:32.756Z,0.40
2023-03-30T08:36:00.074Z,0.20
2023-03-30T08:38:27.385Z,0.10
2023-03-30T08:40:54.987Z,0.30
2023-03-30T08:43:33.680Z,0.30
2023-03-30T08:46:01.998Z,0.20
2023-03-30T08:48:34.527Z,0.40
2023-03-30T08:51:19.631Z,0.30
2023-03-30T08:53:47.790Z,0.30
2023-03-30T08:56:48.111Z,0.10
2023-03-30T08:59:30.050Z,0.00
2023-03-30T09:02:02.629Z,0.30
2023-03-30T09:05:02.211Z,0.50
2023-03-30T09:07:37.476Z,0.40
2023-03-30T09:10:11.671Z,0.50
2023-03-30T09:12:51.737Z,0.80
2023-03-30T09:15:28.495Z,0.80
2023-03-30T09:18:11.929Z,1.00
2023-03-30T09:20:42.306Z,0.90
2023-03-30T09:23:16.788Z,1.00
2023-03-30T09:25:55.400Z,0.90
2023-03-30T09:28:34.390Z,1.10
2023-03-30T09:31:28.393Z,1.00
2023-03-30T09:34:09.286Z,1.00
2023-03-30T09:36:56.855Z,1.10
2023-03-30T09:39:33.510Z,1.10
2023-03-30T09:42:34.096Z,1.20
2023-03-30T09:45:19.709Z,1.30
2023-03-30T09:47:49.015Z,1.40
2023-03-30T09:50:29.412Z,1.20
2023-03-30T09:53:07.403Z,1.10
2023-03-30T09:55:38.482Z,1.30
2023-03-30T09:58:13.601Z,1.40
2023-03-30T10:00:40.725Z,1.60
2023-03-30T10:03:19.015Z,1.50
2023-03-30T10:05:47.247Z,1.60
2023-03-30T10:08:24.990Z,1.40
2023-03-30T10:10:58.145Z,1.20
2023-03-30T10:13:33.983Z,1.10
2023-03-30T10:16:12.018Z,1.10
2023-03-30T10:18:45.191Z,1.20
2023-03-30T10:21:13.560Z,1.40
2023-03-30T10:23:45.003Z,1.40
2023-03-30T10:26:21.426Z,1.30
2023-03-30T10:29:02.380Z,1.40
2023-03-30T10:31:29.762Z,1.10
2023-03-30T10:33:59.619Z,1.10
2023-03-30T10:36:32.949Z,0.90
2023-03-30T10:39:14.012Z,1.00
2023-03-30T10:41:42.506Z,1.30
2023-03-30T10:44:28.044Z,1.30
2023-03-30T10:47:04.587Z,1.20
2023-03-30T10:50:09.481Z,1.30
2023-03-30T10:52:58.929Z,1.30
2023-03-30T10:55:38.729Z,1.40
2023-03-30T10:58:34.187Z,1.10
2023-03-30T11:01:14.637Z,0.90
2023-03-30T11:03:50.399Z,1.20
2023-03-30T11:06:34.799Z,1.00
2023-03-30T11:09:05.957Z,1.00
2023-03-30T11:11:39.370Z,1.10
2023-03-30T11:14:58.087Z,1.10
2023-03-30T11:17:56.604Z,1.20
2023-03-30T11:20:23.919Z,1.30
2023-03-30T11:23:12.974Z,1.10
2023-03-30T11:25:56.225Z,1.30
2023-03-30T11:28:28.828Z,1.40
2023-03-30T11:31:03.226Z,1.30
2023-03-30T11:33:39.390Z,1.10
2023-03-30T11:36:23.982Z,1.40
2023-03-30T11:39:09.309Z,1.40
2023-03-30T11:41:44.642Z,1.30
2023-03-30T11:44:12.150Z,1.30
2023-03-30T11:46:41.762Z,1.30
2023-03-30T11:49:19.865Z,1.30
2023-03-30T11:52:26.745Z,1.40
2023-03-30T11:55:24.139Z,1.20
2023-03-30T11:58:33.901Z,1.40
2023-03-30T12:01:09.967Z,1.20
2023-03-30T12:03:42.826Z,1.20
2023-03-30T12:06:39.078Z,1.30
2023-03-30T12:09:25.886Z,1.30
2023-03-30T12:11:56.570Z,1.10
2023-03-30T12:14:32.367Z,1.20
2023-03-30T12:17:14.836Z,1.20
2023-03-30T12:19:56.244Z,1.30
2023-03-30T12:22:32.261Z,1.30
2023-03-30T12:25:12.742Z,1.30
2023-03-30T12:27:59.903Z,1.30
2023-03-30T12:30:41.896Z,1.20
2023-03-30T12:33:18.878Z,1.20
2023-03-30T12:35:56.740Z,1.10
2023-03-30T12:38:46.287Z,1.30
2023-03-30T12:41:22.437Z,1.30
2023-03-30T12:44:15.113Z,1.30
2023-03-30T12:47:06.783Z,1.20
2023-03-30T12:49:52.649Z,1.10
2023-03-30T12:52:32.044Z,1.10
2023-03-30T12:55:13.204Z,1.30
2023-03-30T12:57:50.994Z,1.40
2023-03-30T13:00:53.822Z,1.40
2023-03-30T13:03:50.083Z,1.30
2023-03-30T13:06:34.060Z,1.30
2023-03-30T13:09:12.960Z,1.10
2023-03-30T13:11:45.997Z,1.00
2023-03-30T13:14:31.404Z,0.90
2023-03-30T13:17:01.826Z,1.00
2023-03-30T13:19:43.169Z,1.00
2023-03-30T13:22:13.684Z,1.10
2023-03-30T13:24:44.115Z,1.10
2023-03-30T13:27:14.486Z,0.70
2023-03-30T13:29:42.534Z,0.90
2023-03-30T13:32:26.946Z,1.00
2023-03-30T13:35:15.300Z,1.10
2023-03-30T13:37:51.249Z,1.00
2023-03-30T13:40:41.594Z,1.00
2023-03-30T13:43:48.727Z,0.80
2023-03-30T13:46:22.638Z,0.80
2023-03-30T13:48:55.371Z,0.90
2023-03-30T13:51:27.506Z,0.80
2023-03-30T13:54:29.263Z,0.80
2023-03-30T13:57:32.523Z,0.90
2023-03-30T14:00:22.758Z,1.10
2023-03-30T14:02:53.209Z,1.10
2023-03-30T14:05:26.559Z,1.00
2023-03-30T14:07:58.007Z,1.10
2023-03-30T14:10:26.103Z,1.10
2023-03-30T14:12:55.872Z,1.00
2023-03-30T14:15:43.436Z,1.00
2023-03-30T14:18:21.820Z,0.90
2023-03-30T14:21:04.503Z,1.00
2023-03-30T14:23:42.649Z,0.90
2023-03-30T14:26:17.272Z,0.90
2023-03-30T14:28:45.009Z,0.90
2023-03-30T14:31:21.316Z,0.90
2023-03-30T14:33:49.696Z,0.80
2023-03-30T14:36:21.447Z,0.90
2023-03-30T14:38:51.662Z,0.90
2023-03-30T14:41:24.423Z,0.90
2023-03-30T14:44:13.148Z,0.80
2023-03-30T14:46:48.513Z,0.70
2023-03-30T14:49:22.529Z,0.80
2023-03-30T14:52:01.524Z,0.90
2023-03-30T14:54:31.992Z,0.90
2023-03-30T14:57:06.997Z,0.90
2023-03-30T14:59:55.352Z,0.80
2023-03-30T15:02:33.457Z,0.80
2023-03-30T15:05:03.971Z,0.70
2023-03-30T15:07:32.749Z,0.90
2023-03-30T15:10:01.373Z,0.80
2023-03-30T15:12:41.622Z,0.80
2023-03-30T15:15:12.554Z,0.80
2023-03-30T15:17:45.492Z,0.90
2023-03-30T15:20:13.830Z,1.00
2023-03-30T15:22:53.868Z,0.70
2023-03-30T15:25:31.634Z,0.80
2023-03-30T15:28:04.144Z,0.80
2023-03-30T15:30:44.138Z,0.80
2023-03-30T15:33:23.508Z,0.70
2023-03-30T15:35:53.348Z,0.70
2023-03-30T15:38:34.436Z,0.70
2023-03-30T15:41:08.946Z,0.80
2023-03-30T15:43:38.654Z,0.80
2023-03-30T15:46:22.961Z,0.80
2023-03-30T15:48:53.841Z,0.80
2023-03-30T15:51:36.203Z,0.60
2023-03-30T15:54:15.175Z,0.50
2023-03-30T15:57:00.716Z,0.50
2023-03-30T15:59:47.472Z,0.60
2023-03-30T16:02:34.395Z,0.60
2023-03-30T16:05:03.036Z,0.60
2023-03-30T16:07:32.492Z,0.60
2023-03-30T16:09:59.687Z,0.50
2023-03-30T16:12:29.532Z,0.50
2023-03-30T16:14:58.449Z,0.50
2023-03-30T16:17:26.245Z,0.60
2023-03-30T16:19:53.552Z,0.40
2023-03-30T16:22:20.853Z,0.50
2023-03-30T16:24:48.666Z,0.50
2023-03-30T16:27:16.277Z,0.50
2023-03-30T16:29:43.589Z,0.40
2023-03-30T16:32:10.962Z,0.40
2023-03-30T16:34:38.482Z,0.40
2023-03-30T16:37:06.004Z,0.40
2023-03-30T16:39:33.169Z,0.30
2023-03-30T16:42:00.936Z,0.30
2023-03-30T16:44:28.309Z,0.40
2023-03-30T16:46:55.444Z,0.30
2023-03-30T16:49:26.351Z,0.30
2023-03-30T16:51:57.619Z,0.30
2023-03-30T16:54:31.870Z,0.30
2023-03-30T16:57:01.685Z,0.30
2023-03-30T16:59:32.652Z,0.20
2023-03-30T17:02:00.451Z,0.20
2023-03-30T17:04:27.693Z,0.30
2023-03-30T17:06:55.177Z,0.20
2023-03-30T17:09:23.887Z,0.30
2023-03-30T17:11:51.589Z,0.30
2023-03-30T17:14:20.409Z,0.30
2023-03-30T17:16:47.664Z,0.20
2023-03-30T17:19:15.646Z,0.20
2023-03-30T17:21:43.939Z,0.30
2023-03-30T17:24:13.588Z,0.20
2023-03-30T17:26:42.959Z,0.20
2023-03-30T17:29:10.902Z,0.30
2023-03-30T17:31:38.960Z,0.20
2023-03-30T17:34:07.383Z,0.20
2023-03-30T17:36:34.699Z,0.20
2023-03-30T17:39:05.176Z,0.20
2023-03-30T17:41:34.505Z,0.20
2023-03-30T17:44:16.702Z,0.10
2023-03-30T17:46:44.081Z,0.10
2023-03-30T17:49:17.893Z,0.10
2023-03-30T17:51:45.074Z,0.20
2023-03-30T17:54:12.217Z,0.30
2023-03-30T17:56:39.378Z,0.30
2023-03-30T17:59:10.965Z,0.20
2023-03-30T18:01:44.052Z,0.20
2023-03-30T18:04:20.798Z,0.10
2023-03-30T18:06:48.914Z,0.10
2023-03-30T18:09:18.851Z,0.10
2023-03-30T18:11:45.891Z,0.00
2023-03-30T18:14:13.287Z,0.10
2023-03-30T18:16:43.651Z,0.10
2023-03-30T18:19:14.158Z,0.10
2023-03-30T18:21:41.647Z,0.10
2023-03-30T18:24:08.780Z,0.20
2023-03-30T18:26:35.950Z,0.20
2023-03-30T18:29:03.601Z,0.10
2023-03-30T18:31:30.768Z,0.10
2023-03-30T18:33:57.803Z,0.10
2023-03-30T18:36:25.159Z,0.20
2023-03-30T18:38:52.634Z,0.20
2023-03-30T18:41:19.701Z,0.20
2023-03-30T18:43:46.708Z,0.30
2023-03-30T18:46:14.833Z,0.30
2023-03-30T18:48:42.143Z,0.30
2023-03-30T18:51:12.081Z,0.30
2023-03-30T18:53:39.505Z,0.30
2023-03-30T18:56:06.831Z,0.30
2023-03-30T18:58:41.756Z,0.40
2023-03-30T19:01:13.432Z,0.40
2023-03-30T19:03:44.303Z,0.40
2023-03-30T19:06:19.770Z,0.40
2023-03-30T19:08:47.185Z,0.40
2023-03-30T19:11:18.678Z,0.40
2023-03-30T19:13:47.347Z,0.40
2023-03-30T19:16:19.079Z,0.40
2023-03-30T19:18:46.131Z,0.40
2023-03-30T19:21:18.079Z,0.50
2023-03-30T19:23:45.489Z,0.50
2023-03-30T19:26:15.595Z,0.50
2023-03-30T19:28:43.364Z,0.60
2023-03-30T19:31:15.988Z,0.50
2023-03-30T19:33:43.414Z,0.50
2023-03-30T19:36:10.991Z,0.50
2023-03-30T19:38:38.559Z,0.40
2023-03-30T19:41:08.312Z,0.50
2023-03-30T19:43:36.455Z,0.50
2023-03-30T19:46:05.035Z,0.40
2023-03-30T19:48:32.156Z,0.40
2023-03-30T19:50:59.196Z,0.40
2023-03-30T19:53:29.074Z,0.30
2023-03-30T19:55:56.163Z,0.40
2023-03-30T19:58:25.651Z,0.30
2023-03-30T20:00:57.202Z,0.30
2023-03-30T20:03:25.371Z,0.40
2023-03-30T20:05:52.582Z,0.40
2023-03-30T20:08:24.830Z,0.40
2023-03-30T20:10:53.131Z,0.40
2023-03-30T20:13:25.574Z,0.40
2023-03-30T20:15:57.053Z,0.30
2023-03-30T20:18:24.386Z,0.30
2023-03-30T20:20:51.654Z,0.40
2023-03-30T20:23:18.658Z,0.40
2023-03-30T20:25:50.605Z,0.40
2023-03-30T20:28:18.106Z,0.40
2023-03-30T20:30:45.235Z,0.40
2023-03-30T20:33:14.761Z,0.40
2023-03-30T20:35:42.112Z,0.30
2023-03-30T20:38:09.670Z,0.30
2023-03-30T20:40:36.784Z,0.30
2023-03-30T20:43:04.212Z,0.20
2023-03-30T20:45:31.806Z,0.30
2023-03-30T20:48:01.610Z,0.30
2023-03-30T20:50:28.821Z,0.30
2023-03-30T20:52:56.045Z,0.20
2023-03-30T20:55:23.141Z,0.20
2023-03-30T20:57:50.221Z,0.30
2023-03-30T21:00:17.663Z,0.20
2023-03-30T21:02:44.666Z,0.30
2023-03-30T21:05:11.713Z,0.30
2023-03-30T21:07:42.343Z,0.30
2023-03-30T21:10:09.937Z,0.30
2023-03-30T21:12:36.972Z,0.30
2023-03-30T21:15:04.176Z,0.30
2023-03-30T21:17:31.631Z,0.20
2023-03-30T21:19:59.003Z,0.20
2023-03-30T21:22:26.025Z,0.20
2023-03-30T21:24:53.233Z,0.20
2023-03-30T21:27:20.596Z,0.20
2023-03-30T21:29:47.739Z,0.20
2023-03-30T21:32:15.179Z,0.20
2023-03-30T21:34:42.295Z,0.10
2023-03-30T21:37:09.500Z,0.10
2023-03-30T21:39:36.659Z,0.20
2023-03-30T21:42:05.415Z,0.10
2023-03-30T21:44:36.125Z,0.10
2023-03-30T21:47:03.149Z,0.00
2023-03-30T21:49:31.891Z,0.00
2023-03-30T21:51:58.926Z,0.10
2023-03-30T21:54:26.462Z,0.00
2023-03-30T21:56:55.343Z,0.10
2023-03-30T21:59:22.426Z,0.10
2023-03-30T22:01:49.502Z,0.10
2023-03-30T22:04:16.629Z,0.10
2023-03-30T22:06:43.853Z,0.10
2023-03-30T22:09:10.816Z,0.10
2023-03-30T22:11:37.847Z,0.10
2023-03-30T22:14:05.107Z,0.10
2023-03-30T22:16:33.335Z,0.10
2023-03-30T22:19:01.044Z,0.10
2023-03-30T22:21:35.762Z,0.10
2023-03-30T22:24:07.379Z,0.10
2023-03-30T22:26:35.852Z,0.10
2023-03-30T22:29:03.098Z,0.00
2023-03-30T22:31:30.538Z,0.10
2023-03-30T22:33:57.732Z,0.00
2023-03-30T22:36:30.193Z,0.00
2023-03-30T22:38:58.603Z,-0.10
2023-03-30T22:41:53.556Z,-0.10
2023-03-30T22:44:21.589Z,-0.10
2023-03-30T22:46:48.610Z,-0.10
2023-03-30T22:49:15.827Z,-0.10
2023-03-30T22:51:52.664Z,-0.20
2023-03-30T22:54:20.668Z,-0.20
2023-03-30T22:56:48.896Z,-0.20
2023-03-30T22:59:16.222Z,-0.20
2023-03-30T23:01:43.741Z,-0.20
2023-03-30T23:04:12.194Z,-0.20
2023-03-30T23:06:39.333Z,-0.20
2023-03-30T23:09:06.965Z,-0.20
2023-03-30T23:11:34.381Z,-0.20
2023-03-30T23:14:07.401Z,-0.20
2023-03-30T23:16:36.265Z,-0.20
2023-03-30T23:19:05.225Z,-0.20
2023-03-30T23:21:36.020Z,-0.20
2023-03-30T23:24:10.802Z,-0.20
2023-03-30T23:26:38.163Z,-0.20
2023-03-30T23:29:05.754Z,-0.10
2023-03-30T23:31:34.695Z,-0.10
2023-03-30T23:34:02.163Z,-0.10
2023-03-30T23:36:29.260Z,-0.10
2023-03-30T23:38:56.478Z,-0.10
2023-03-30T23:41:24.010Z,-0.20
2023-03-30T23:43:51.595Z,-0.20
2023-03-30T23:46:19.883Z,-0.20
2023-03-30T23:48:47.008Z,-0.10
2023-03-30T23:51:14.042Z,-0.20
2023-03-30T23:53:41.820Z,-0.30
2023-03-30T23:56:13.282Z,-0.30
2023-03-30T23:58:41.587Z,-0.20
